Skip to main content.

Regional Weather Summary







Station Name-Location
 
Time
 
Baro
Pressure
Outside
Temp
 Temp
Max
Temp
Min
Dew
Point
RH
%
Wind
Speed
Average
Wind Dir
Wind Max
Last Hr
Wind
Gust Max
Rain
Today
Rain
Last Hr
Rain Rate
in/hr
Rain
Month
Rain
Year
Vermilionweather-Near Lake Vermilion09:07:2830.35 inHg     29.5°F 29.5°F18.3°F21.7°F73%1.4 mph NW5.8 mph 5.8 mph 0.00in0.00in0.00in/hr0.00in40.49in
EMA HQ's-Home Gardens- -:- -:- -Old Data  - -.-    - -.-- -.-- -.-- -%- - -.-- -- - -.-- - -.-- - . -0.00in0.00in/hr- - . -- - . -
k9adl.net-Oakwood- -:- -:- -Old Data  - -.-    - -.-- -.-- -.-- -%- - -.-- -- - -.-- - -.-- - . -0.00in0.00in/hr- - . -- - . -
Mahomet09:07:1230.38 inHg    29.1°F 29.1°F18.7°F22.5°F76%2.2 mph NNW5.8 mph 5.8 mph 0.00in0.00in0.00in/hr0.00in3.94in

Version 2.12 6th August 2012

If you own a personal weather station
and would like to have your data displayed here,
use the "Contact admin" link at the bottom of the page
to find out how.

For full weather information visit the individual websites above
This page was created by Clevedon Weather using some basic php scripts from TNET Weather.
The script for displaying the data has been produced by Clevedon Weather but has been modified by Vermilionweather.com for it's own use.



Nearby METAR Reports

Nearby METAR Reports

 

KDNV - Danville, Illinois, USA
Distance from station: 0 0mi, 0km
Updated: Wed, 02-Dec-2020 9:07am CST
unable to load KDNV data RC=
unable to load KDNV data RC=
 
KTIP - Rantoul, Illinois, USA
Distance from station: W 30mi, 48km
Updated: Wed, 02-Dec-2020 8:55am CST
Clear
Clear
 Wind from WNW
Wind: WNW 6 mph , 9 km/h
Temperature: 28°F , -2°C
Wind Chill: 21°F , -6°C
Dew Point: 21°F , -6°C
Humidity: 74%
Barometer: 30.37 inHg , 1028.4 hPa
Clouds: Clear
Visibility: 10 miles , 16 km
2020/12/02 14:55 KTIP 021455Z AUTO 30005KT 10SM CLR M02/M06 A3037 RMK AO2 T10241060
 
KPRG - Paris, Illinois, USA
Distance from station: S 35mi, 56km
Updated: Wed, 02-Dec-2020 8:55am CST
Clear
Clear
 
Temperature: 30°F , -1°C
Dew Point: 25°F , -4°C
Humidity: 80%
Barometer: 30.39 inHg , 1029.1 hPa
Clouds: Clear
Visibility: 10 miles , 16 km
2020/12/02 14:55 KPRG 021455Z 10SM CLR M01/M04 A3039 RMK AO2 T10071039
KCMI - Champaign/Urbana, Illinois, USA
Distance from station: WSW 37mi, 60km
Updated: Wed, 02-Dec-2020 8:53am CST
Clear
Clear
 Wind from NW
Wind: NW 5 mph , 7 km/h
Temperature: 28°F , -2°C
Wind Chill: 22°F , -6°C
Dew Point: 23°F , -5°C
Humidity: 80%
Barometer: 30.37 inHg , 1028.4 hPa
Clouds: Clear
Visibility: 10 miles , 16 km
2020/12/02 14:53 KCMI 021453Z 31004KT 10SM CLR M02/M05 A3037 RMK AO2 SLP295 T10221050 53014
 
KLAF - Lafayette, Indiana, USA
Distance from station: ENE 38mi, 61km
Updated: Wed, 02-Dec-2020 8:54am CST
Clear
Clear
 Wind from W
Wind: W 6 mph , 9 km/h
Temperature: 28°F , -2°C
Wind Chill: 21°F , -6°C
Dew Point: 23°F , -5°C
Humidity: 80%
Barometer: 30.36 inHg , 1028.1 hPa
Clouds: Clear
Visibility: 10 miles , 16 km
2020/12/02 14:54 KLAF 021454Z 27005KT 10SM CLR M02/M05 A3036 RMK AO2 SLP289 I3000 T10221050 51017 $
KCFJ - Crawfordsville, Indiana, USA
Distance from station: ESE 39mi, 63km
Updated: Wed, 02-Dec-2020 8:55am CST
Clear
Clear
 Wind from calm
Wind: Calm
Temperature: 27°F , -3°C
Dew Point: 19°F , -7°C
Humidity: 74%
Barometer: 30.36 inHg , 1028.1 hPa
Clouds: Clear
Visibility: 10 miles , 16 km
2020/12/02 14:55 KCFJ 021455Z AUTO 00000KT 10SM CLR M03/M07 A3036 RMK AO2 T10301067

Metar display script from Saratoga-Weather.org

Go To Top